Terminal Aerodrome Forecast
Issued by NWS

Home | Current Version | Previous Version | Text Only | Print | Product List | Glossary On
Versions: 1 2 3 4 5 6 7 8 9 10 11 12 13 14 15 16 17 18 19 20
000
FTUS45 KBOU 272336
TAFAPA
TAF
KAPA 272336Z 2800/2824 14008KT P6SM SCT090 SCT120 BKN220
     FM280300 19007KT P6SM FEW090 BKN140
     FM281000 VRB04KT P6SM SCT140 BKN200
     FM281700 04007KT P6SM FEW090 SCT140=

USA.gov is the U.S. government's official web portal to all federal, state and local government web resources and services.